createdAt,value
2019-03-29T00:01:12.229Z,155.00
2019-03-29T00:03:42.613Z,156.00
2019-03-29T00:06:13.299Z,134.80
2019-03-29T00:08:43.651Z,144.80
2019-03-29T00:11:14.117Z,146.00
2019-03-29T00:13:44.968Z,132.60
2019-03-29T00:16:15.270Z,145.00
2019-03-29T00:18:45.941Z,142.40
2019-03-29T00:21:16.305Z,156.60
2019-03-29T00:23:46.833Z,153.40
2019-03-29T00:26:17.276Z,155.80
2019-03-29T00:28:47.842Z,146.80
2019-03-29T00:31:18.169Z,151.80
2019-03-29T00:33:49.365Z,152.80
2019-03-29T00:36:20.327Z,152.00
2019-03-29T00:38:50.847Z,148.80
2019-03-29T00:41:21.253Z,145.00
2019-03-29T00:43:52.015Z,144.80
2019-03-29T00:46:22.450Z,160.00
2019-03-29T00:48:52.878Z,133.00
2019-03-29T00:51:23.259Z,150.00
2019-03-29T00:53:53.599Z,156.20
2019-03-29T00:56:23.954Z,156.00
2019-03-29T00:58:55.441Z,159.80
2019-03-29T01:01:26.136Z,152.00
2019-03-29T01:03:56.816Z,152.00
2019-03-29T01:06:27.068Z,143.60
2019-03-29T01:08:57.374Z,153.60
2019-03-29T01:11:27.790Z,143.60
2019-03-29T01:13:58.662Z,161.60
2019-03-29T01:16:30.173Z,154.60
2019-03-29T01:19:00.662Z,154.20
2019-03-29T01:21:31.139Z,152.40
2019-03-29T01:24:01.551Z,157.20
2019-03-29T01:26:32.057Z,157.40
2019-03-29T01:29:02.436Z,164.60
2019-03-29T01:31:33.371Z,164.80
2019-03-29T01:34:03.966Z,158.60
2019-03-29T01:36:34.474Z,176.60
2019-03-29T01:39:05.878Z,196.25
2019-03-29T01:41:36.244Z,193.00
2019-03-29T01:44:06.924Z,176.40
2019-03-29T01:46:37.952Z,180.40
2019-03-29T01:49:08.335Z,168.80
2019-03-29T01:51:39.045Z,211.00
2019-03-29T01:54:09.340Z,209.00
2019-03-29T01:56:40.237Z,197.25
2019-03-29T01:59:11.234Z,190.75
2019-03-29T02:01:41.490Z,185.25
2019-03-29T02:04:12.083Z,166.40
2019-03-29T02:06:42.412Z,179.40
2019-03-29T02:09:12.916Z,165.00
2019-03-29T02:11:43.358Z,182.00
2019-03-29T02:14:14.230Z,185.60
2019-03-29T02:16:44.590Z,170.00
2019-03-29T02:19:15.318Z,166.60
2019-03-29T02:21:45.785Z,185.60
2019-03-29T02:24:16.842Z,165.20
2019-03-29T02:26:47.280Z,187.20
2019-03-29T02:29:17.917Z,174.40
2019-03-29T02:31:48.199Z,152.20
2019-03-29T02:34:18.610Z,166.40
2019-03-29T02:36:49.179Z,160.60
2019-03-29T02:39:19.829Z,178.40
2019-03-29T02:41:50.033Z,162.40
2019-03-29T02:44:20.748Z,160.80
2019-03-29T02:46:51.165Z,162.20
2019-03-29T02:49:21.412Z,153.60
2019-03-29T02:51:51.769Z,160.40
2019-03-29T02:54:22.139Z,156.20
2019-03-29T02:56:52.663Z,164.80
2019-03-29T02:59:23.103Z,153.00
2019-03-29T03:01:53.653Z,148.40
2019-03-29T03:04:24.347Z,155.60
2019-03-29T03:06:54.855Z,156.00
2019-03-29T03:09:25.432Z,152.40
2019-03-29T03:11:55.783Z,138.00
2019-03-29T03:14:26.813Z,153.00
2019-03-29T03:16:57.184Z,139.00
2019-03-29T03:19:27.735Z,140.20
2019-03-29T03:21:58.497Z,153.20
2019-03-29T03:24:29.016Z,140.60
2019-03-29T03:26:59.415Z,122.20
2019-03-29T03:29:30.016Z,125.00
2019-03-29T03:32:00.382Z,120.40
2019-03-29T03:34:30.878Z,127.60
2019-03-29T03:37:01.641Z,109.00
2019-03-29T03:39:32.710Z,109.80
2019-03-29T03:42:03.214Z,105.40
2019-03-29T03:44:34.371Z,102.40
2019-03-29T03:47:04.673Z,92.40
2019-03-29T03:49:35.146Z,81.00
2019-03-29T03:52:05.476Z,75.20
2019-03-29T03:54:35.895Z,78.80
2019-03-29T03:57:06.244Z,79.40
2019-03-29T03:59:37.516Z,74.80
2019-03-29T04:02:07.908Z,77.60
2019-03-29T04:04:38.488Z,78.40
2019-03-29T04:07:09.036Z,74.60
2019-03-29T04:09:49.277Z,74.80
2019-03-29T04:12:11.909Z,77.40
2019-03-29T04:14:42.511Z,79.00
2019-03-29T04:17:12.822Z,72.00
2019-03-29T04:19:43.081Z,74.20
2019-03-29T04:22:13.551Z,71.20
2019-03-29T04:24:43.716Z,73.00
2019-03-29T04:27:14.167Z,70.00
2019-03-29T04:29:44.753Z,66.40
2019-03-29T04:32:14.928Z,65.60
2019-03-29T04:34:45.355Z,61.40
2019-03-29T04:37:15.816Z,63.80
2019-03-29T04:39:46.227Z,67.20
2019-03-29T04:42:16.649Z,62.80
2019-03-29T04:44:47.004Z,65.60
2019-03-29T04:47:17.660Z,64.40
2019-03-29T04:49:48.109Z,56.20
2019-03-29T04:52:18.649Z,60.40
2019-03-29T04:54:49.248Z,62.40
2019-03-29T04:57:19.472Z,64.60
2019-03-29T04:59:49.849Z,64.00
2019-03-29T05:02:21.005Z,66.60
2019-03-29T05:04:51.311Z,66.40
2019-03-29T05:07:21.653Z,64.80
2019-03-29T05:09:52.456Z,53.60
2019-03-29T05:12:22.949Z,66.20
2019-03-29T05:14:53.407Z,70.60
2019-03-29T05:17:24.180Z,65.00
2019-03-29T05:19:54.405Z,65.60
2019-03-29T05:22:24.953Z,57.00
2019-03-29T05:24:55.381Z,61.80
2019-03-29T05:27:25.804Z,62.00
2019-03-29T05:29:57.263Z,55.80
2019-03-29T05:32:27.576Z,53.00
2019-03-29T05:34:57.888Z,56.00
2019-03-29T05:37:28.338Z,44.20
2019-03-29T05:39:58.770Z,51.80
2019-03-29T05:42:29.620Z,52.60
2019-03-29T05:44:59.927Z,43.80
2019-03-29T05:47:30.688Z,43.80
2019-03-29T05:50:01.222Z,46.60
2019-03-29T05:52:31.619Z,47.60
2019-03-29T05:55:01.979Z,49.40
2019-03-29T05:57:32.665Z,40.80
2019-03-29T06:00:02.998Z,39.20
2019-03-29T06:02:33.725Z,40.60
2019-03-29T06:05:04.137Z,48.40
2019-03-29T06:07:35.630Z,35.60
2019-03-29T06:10:06.646Z,44.20
2019-03-29T06:12:37.330Z,39.00
2019-03-29T06:15:08.328Z,43.00
2019-03-29T06:17:48.482Z,43.60
2019-03-29T06:20:11.738Z,38.40
2019-03-29T06:22:42.930Z,48.20
2019-03-29T06:25:14.186Z,42.60
2019-03-29T06:27:45.323Z,45.00
2019-03-29T06:30:21.078Z,44.20
2019-03-29T06:32:55.312Z,46.60
2019-03-29T06:35:29.625Z,47.20
2019-03-29T06:38:00.408Z,45.80
2019-03-29T06:40:32.182Z,39.80
2019-03-29T06:43:03.263Z,45.60
2019-03-29T06:45:46.879Z,46.80
2019-03-29T06:48:06.593Z,44.40
2019-03-29T06:50:37.637Z,42.00
2019-03-29T06:53:08.502Z,44.60
2019-03-29T06:55:39.896Z,38.60
2019-03-29T06:58:10.843Z,43.80
2019-03-29T07:00:41.754Z,38.60
2019-03-29T07:03:12.583Z,40.20
2019-03-29T07:05:43.285Z,39.80
2019-03-29T07:08:14.201Z,41.40
2019-03-29T07:10:44.855Z,44.40
2019-03-29T07:13:19.273Z,39.00
2019-03-29T07:15:50.117Z,39.00
2019-03-29T07:18:21.033Z,45.80
2019-03-29T07:20:51.664Z,36.20
2019-03-29T07:23:23.554Z,37.20
2019-03-29T07:25:56.385Z,34.40
2019-03-29T07:28:27.581Z,37.00
2019-03-29T07:30:59.479Z,40.80
2019-03-29T07:33:30.458Z,36.00
2019-03-29T07:36:01.722Z,40.40
2019-03-29T07:38:32.349Z,43.00
2019-03-29T07:41:04.510Z,34.00
2019-03-29T07:43:35.347Z,38.00
2019-03-29T07:46:06.247Z,38.80
2019-03-29T07:48:40.227Z,43.40
2019-03-29T07:51:10.492Z,38.40
2019-03-29T07:53:44.680Z,34.00
2019-03-29T07:56:13.718Z,35.00
2019-03-29T07:58:45.290Z,37.20
2019-03-29T08:01:16.221Z,23.80
2019-03-29T08:03:47.256Z,40.80
2019-03-29T08:06:17.953Z,35.80
2019-03-29T08:08:49.338Z,34.80
2019-03-29T08:11:26.084Z,29.80
2019-03-29T08:13:52.914Z,31.80
2019-03-29T08:16:24.757Z,27.60
2019-03-29T08:18:55.163Z,28.60
2019-03-29T08:21:25.733Z,30.00
2019-03-29T08:23:56.506Z,28.20
2019-03-29T08:26:27.732Z,34.40
2019-03-29T08:29:02.600Z,35.00
2019-03-29T08:31:33.453Z,29.60
2019-03-29T08:34:05.145Z,34.20
2019-03-29T08:36:36.503Z,31.60
2019-03-29T08:39:10.261Z,28.20
2019-03-29T08:41:40.462Z,27.80
2019-03-29T08:44:11.921Z,30.20
2019-03-29T08:46:43.881Z,28.00
2019-03-29T08:49:18.474Z,27.40
2019-03-29T08:51:49.469Z,28.40
2019-03-29T08:54:20.545Z,30.80
2019-03-29T08:56:53.983Z,29.40
2019-03-29T08:59:25.157Z,28.40
2019-03-29T09:01:57.377Z,28.40
2019-03-29T09:04:28.617Z,29.60
2019-03-29T09:06:59.281Z,31.00
2019-03-29T09:09:31.784Z,29.20
2019-03-29T09:12:14.231Z,27.60
2019-03-29T09:14:39.354Z,28.40
2019-03-29T09:17:10.553Z,32.60
2019-03-29T09:19:41.876Z,29.20
2019-03-29T09:22:14.543Z,28.00
2019-03-29T09:24:45.548Z,22.40
2019-03-29T09:27:16.724Z,24.00
2019-03-29T09:29:48.373Z,22.00
2019-03-29T09:32:19.384Z,25.00
2019-03-29T09:34:50.618Z,22.60
2019-03-29T09:37:21.888Z,23.40
2019-03-29T09:39:53.020Z,24.80
2019-03-29T09:42:29.593Z,21.80
2019-03-29T09:44:56.862Z,24.00
2019-03-29T09:47:28.128Z,16.60
2019-03-29T09:50:00.732Z,25.40
2019-03-29T09:52:34.120Z,24.00
2019-03-29T09:55:05.981Z,23.40
2019-03-29T09:57:38.142Z,25.40
2019-03-29T10:00:19.081Z,23.00
2019-03-29T10:02:43.098Z,24.40
2019-03-29T10:05:13.988Z,24.60
2019-03-29T10:07:44.602Z,26.40
2019-03-29T10:10:14.912Z,28.80
2019-03-29T10:12:45.546Z,25.60
2019-03-29T10:15:16.205Z,23.80
2019-03-29T10:17:46.569Z,25.00
2019-03-29T10:20:17.267Z,23.60
2019-03-29T10:22:49.919Z,21.80
2019-03-29T10:25:20.524Z,26.00
2019-03-29T10:27:51.187Z,25.80
2019-03-29T10:30:40.728Z,24.40
2019-03-29T10:33:11.507Z,28.80
2019-03-29T10:35:51.536Z,26.80
2019-03-29T10:38:14.141Z,27.40
2019-03-29T10:40:44.497Z,29.60
2019-03-29T10:43:14.899Z,19.60
2019-03-29T10:45:46.031Z,16.00
2019-03-29T10:48:17.116Z,28.40
2019-03-29T10:50:48.230Z,28.20
2019-03-29T10:53:19.196Z,30.00
2019-03-29T10:55:50.340Z,33.20
2019-03-29T10:58:21.053Z,31.60
2019-03-29T11:00:54.076Z,29.60
2019-03-29T11:03:28.389Z,28.40
2019-03-29T11:05:57.972Z,26.80
2019-03-29T11:08:28.700Z,22.80
2019-03-29T11:11:00.032Z,31.80
2019-03-29T11:13:30.815Z,34.20
2019-03-29T11:16:01.442Z,28.00
2019-03-29T11:18:32.355Z,32.00
2019-03-29T11:21:03.046Z,28.60
2019-03-29T11:23:33.965Z,30.60
2019-03-29T11:26:05.578Z,27.60
2019-03-29T11:28:36.776Z,30.80
2019-03-29T11:31:07.233Z,27.60
2019-03-29T11:33:41.284Z,31.80
2019-03-29T11:36:12.316Z,26.40
2019-03-29T11:38:43.344Z,29.20
2019-03-29T11:41:14.189Z,33.20
2019-03-29T11:43:44.855Z,32.80
2019-03-29T11:46:15.386Z,37.20
2019-03-29T11:48:47.611Z,33.40
2019-03-29T11:51:19.640Z,30.00
2019-03-29T11:53:51.556Z,32.20
2019-03-29T11:56:22.348Z,39.60
2019-03-29T11:58:54.007Z,36.60
2019-03-29T12:01:24.681Z,39.40
2019-03-29T12:03:56.830Z,36.40
2019-03-29T12:06:27.648Z,34.80
2019-03-29T12:08:59.342Z,37.60
2019-03-29T12:11:30.746Z,52.20
2019-03-29T12:14:04.779Z,45.00
2019-03-29T12:16:34.629Z,40.80
2019-03-29T12:19:05.340Z,43.00
2019-03-29T12:21:36.261Z,36.20
2019-03-29T12:24:07.070Z,39.00
2019-03-29T12:26:37.778Z,38.40
2019-03-29T12:29:09.122Z,42.40
2019-03-29T12:31:40.039Z,36.80
2019-03-29T12:34:10.579Z,40.60
2019-03-29T12:36:41.690Z,39.80
2019-03-29T12:39:14.187Z,43.60
2019-03-29T12:41:45.302Z,37.40
2019-03-29T12:44:15.816Z,36.60
2019-03-29T12:46:46.263Z,37.20
2019-03-29T12:49:16.585Z,41.80
2019-03-29T12:51:47.179Z,39.40
2019-03-29T12:54:18.179Z,37.60
2019-03-29T12:56:49.208Z,46.40
2019-03-29T12:59:20.255Z,44.20
2019-03-29T13:01:50.634Z,43.40
2019-03-29T13:04:24.685Z,47.40
2019-03-29T13:06:55.886Z,47.00
2019-03-29T13:09:26.403Z,41.00
2019-03-29T13:11:56.945Z,49.00
2019-03-29T13:14:27.607Z,47.20
2019-03-29T13:16:58.057Z,46.60
2019-03-29T13:19:28.843Z,45.00
2019-03-29T13:21:59.138Z,43.20
2019-03-29T13:24:29.518Z,50.20
2019-03-29T13:26:59.758Z,42.80
2019-03-29T13:29:31.771Z,50.00
2019-03-29T13:32:02.737Z,51.60
2019-03-29T13:34:33.786Z,58.60
2019-03-29T13:37:04.152Z,53.80
2019-03-29T13:39:34.540Z,58.80
2019-03-29T13:42:04.809Z,62.00
2019-03-29T13:44:35.270Z,64.60
2019-03-29T13:47:06.103Z,68.20
2019-03-29T13:49:36.575Z,69.00
2019-03-29T13:52:06.833Z,71.20
2019-03-29T13:54:37.173Z,74.80
2019-03-29T13:57:07.712Z,71.40
2019-03-29T13:59:38.666Z,77.80
2019-03-29T14:02:09.000Z,71.20
2019-03-29T14:04:39.332Z,72.60
2019-03-29T14:07:09.585Z,77.00
2019-03-29T14:09:40.210Z,72.20
2019-03-29T14:12:10.453Z,74.20
2019-03-29T14:14:40.821Z,74.40
2019-03-29T14:17:11.383Z,77.40
2019-03-29T14:19:41.678Z,78.20
2019-03-29T14:22:11.947Z,79.00
2019-03-29T14:24:42.266Z,77.60
2019-03-29T14:27:12.782Z,78.80
2019-03-29T14:29:43.723Z,79.20
2019-03-29T14:32:14.250Z,78.40
2019-03-29T14:34:44.734Z,78.60
2019-03-29T14:37:15.076Z,75.80
2019-03-29T14:39:45.505Z,77.60
2019-03-29T14:42:15.891Z,74.20
2019-03-29T14:44:52.166Z,74.40
2019-03-29T14:47:18.272Z,74.00
2019-03-29T14:49:48.569Z,75.40
2019-03-29T14:52:19.060Z,76.60
2019-03-29T14:54:50.266Z,75.20
2019-03-29T14:57:21.201Z,72.40
2019-03-29T14:59:51.538Z,70.20
2019-03-29T15:02:22.507Z,73.20
2019-03-29T15:04:53.289Z,74.60
2019-03-29T15:07:23.605Z,72.00
2019-03-29T15:09:54.489Z,77.40
2019-03-29T15:12:24.768Z,73.00
2019-03-29T15:15:05.596Z,73.60
2019-03-29T15:17:27.274Z,77.20
2019-03-29T15:19:57.938Z,70.60
2019-03-29T15:22:28.193Z,79.80
2019-03-29T15:24:59.133Z,78.40
2019-03-29T15:27:29.576Z,79.20
2019-03-29T15:30:00.459Z,88.40
2019-03-29T15:32:31.108Z,83.60
2019-03-29T15:35:01.473Z,82.80
2019-03-29T15:37:31.911Z,82.40
2019-03-29T15:40:02.499Z,87.00
2019-03-29T15:42:33.252Z,80.00
2019-03-29T15:45:03.583Z,81.00
2019-03-29T15:47:33.833Z,86.60
2019-03-29T15:50:04.237Z,80.80
2019-03-29T15:52:34.495Z,74.60
2019-03-29T15:55:04.998Z,78.00
2019-03-29T15:57:35.573Z,81.20
2019-03-29T16:00:06.524Z,83.40
2019-03-29T16:02:37.893Z,80.00
2019-03-29T16:05:08.374Z,82.60
2019-03-29T16:07:38.679Z,80.20
2019-03-29T16:10:10.027Z,75.00
2019-03-29T16:12:40.915Z,73.60
2019-03-29T16:15:11.447Z,72.20
2019-03-29T16:17:42.042Z,75.60
2019-03-29T16:20:12.799Z,74.60
2019-03-29T16:22:43.316Z,70.20
2019-03-29T16:25:14.932Z,72.00
2019-03-29T16:27:45.229Z,71.40
2019-03-29T16:30:16.327Z,72.20
2019-03-29T16:32:47.121Z,73.80
2019-03-29T16:35:17.652Z,70.60
2019-03-29T16:37:56.961Z,74.60
2019-03-29T16:40:19.995Z,74.00
2019-03-29T16:42:50.417Z,74.00
2019-03-29T16:45:20.952Z,70.80
2019-03-29T16:47:51.318Z,75.20
2019-03-29T16:50:21.659Z,76.00
2019-03-29T16:52:52.007Z,67.40
2019-03-29T16:55:22.303Z,79.40
2019-03-29T16:57:52.818Z,71.60
2019-03-29T17:00:23.519Z,77.20
2019-03-29T17:02:54.536Z,78.40
2019-03-29T17:05:26.072Z,74.00
2019-03-29T17:07:56.263Z,74.40
2019-03-29T17:10:26.628Z,74.20
2019-03-29T17:12:56.878Z,73.40
2019-03-29T17:15:27.436Z,74.80
2019-03-29T17:17:58.282Z,79.80
2019-03-29T17:20:29.107Z,74.60
2019-03-29T17:22:59.449Z,81.40
2019-03-29T17:25:29.786Z,78.80
2019-03-29T17:27:59.990Z,76.20
2019-03-29T17:30:43.136Z,76.60
2019-03-29T17:33:13.876Z,75.60
2019-03-29T17:35:45.116Z,79.80
2019-03-29T17:38:15.586Z,81.40
2019-03-29T17:40:45.712Z,78.40
2019-03-29T17:43:17.621Z,82.60
2019-03-29T17:45:48.422Z,81.40
2019-03-29T17:48:18.732Z,82.60
2019-03-29T17:50:49.893Z,77.80
2019-03-29T17:53:20.087Z,94.00
2019-03-29T17:55:50.844Z,87.60
2019-03-29T17:58:21.038Z,88.80
2019-03-29T18:00:51.391Z,80.20
2019-03-29T18:03:22.337Z,89.40
2019-03-29T18:05:52.491Z,90.80
2019-03-29T18:08:23.138Z,96.40
2019-03-29T18:10:54.433Z,93.80
2019-03-29T18:13:24.789Z,95.60
2019-03-29T18:15:55.171Z,99.40
2019-03-29T18:18:25.577Z,98.00
2019-03-29T18:20:55.753Z,100.20
2019-03-29T18:23:26.493Z,96.00
2019-03-29T18:25:56.938Z,104.80
2019-03-29T18:28:27.690Z,100.20
2019-03-29T18:30:59.012Z,105.00
2019-03-29T18:33:29.885Z,91.00
2019-03-29T18:36:00.561Z,91.80
2019-03-29T18:38:31.030Z,95.40
2019-03-29T18:41:01.691Z,94.40
2019-03-29T18:43:32.077Z,94.80
2019-03-29T18:46:03.735Z,97.80
2019-03-29T18:48:34.260Z,91.60
2019-03-29T18:51:04.747Z,92.00
2019-03-29T18:53:39.074Z,102.40
2019-03-29T18:56:09.767Z,91.80
2019-03-29T18:58:40.500Z,86.80
2019-03-29T19:01:11.832Z,91.40
2019-03-29T19:03:42.269Z,89.20
2019-03-29T19:06:13.002Z,92.00
2019-03-29T19:08:43.374Z,99.20
2019-03-29T19:11:13.688Z,89.00
2019-03-29T19:13:44.153Z,101.60
2019-03-29T19:16:14.307Z,93.80
2019-03-29T19:18:44.849Z,94.40
2019-03-29T19:21:15.388Z,86.40
2019-03-29T19:23:45.658Z,96.40
2019-03-29T19:26:16.241Z,92.00
2019-03-29T19:28:47.688Z,96.40
2019-03-29T19:31:18.669Z,94.20
2019-03-29T19:33:51.010Z,99.00
2019-03-29T19:36:22.537Z,89.80
2019-03-29T19:38:53.275Z,94.60
2019-03-29T19:41:23.582Z,88.20
2019-03-29T19:43:54.236Z,97.80
2019-03-29T19:46:24.566Z,92.60
2019-03-29T19:48:55.191Z,99.60
2019-03-29T19:51:25.359Z,85.80
2019-03-29T19:54:07.267Z,95.20
2019-03-29T19:56:28.867Z,95.60
2019-03-29T19:58:59.609Z,83.00
2019-03-29T20:01:30.124Z,92.40
2019-03-29T20:04:00.443Z,93.20
2019-03-29T20:06:30.944Z,79.80
2019-03-29T20:09:01.535Z,80.80
2019-03-29T20:11:33.281Z,83.00
2019-03-29T20:14:04.194Z,82.80
2019-03-29T20:16:34.582Z,86.40
2019-03-29T20:19:04.971Z,85.40
2019-03-29T20:21:35.774Z,84.40
2019-03-29T20:24:06.012Z,83.60
2019-03-29T20:26:36.325Z,78.40
2019-03-29T20:29:07.032Z,91.20
2019-03-29T20:31:37.458Z,88.40
2019-03-29T20:34:07.519Z,84.80
2019-03-29T20:36:37.976Z,84.20
2019-03-29T20:39:08.990Z,92.40
2019-03-29T20:41:41.115Z,83.40
2019-03-29T20:44:11.868Z,88.20
2019-03-29T20:46:42.622Z,90.80
2019-03-29T20:49:12.796Z,82.60
2019-03-29T20:51:43.927Z,87.20
2019-03-29T20:54:13.962Z,86.40
2019-03-29T20:56:45.087Z,84.60
2019-03-29T20:59:15.595Z,88.40
2019-03-29T21:01:45.991Z,86.60
2019-03-29T21:04:16.516Z,86.60
2019-03-29T21:06:46.834Z,83.20
2019-03-29T21:09:17.411Z,80.20
2019-03-29T21:11:48.169Z,83.20
2019-03-29T21:14:18.980Z,86.80
2019-03-29T21:16:49.602Z,85.40
2019-03-29T21:19:20.046Z,80.80
2019-03-29T21:21:50.831Z,79.00
2019-03-29T21:24:21.161Z,87.00
2019-03-29T21:26:51.617Z,89.00
2019-03-29T21:29:22.103Z,92.40
2019-03-29T21:31:52.275Z,90.80
2019-03-29T21:34:22.826Z,81.80
2019-03-29T21:36:53.068Z,90.80
2019-03-29T21:39:23.434Z,90.20
2019-03-29T21:41:53.609Z,89.20
2019-03-29T21:44:23.833Z,88.80
2019-03-29T21:46:54.081Z,86.60
2019-03-29T21:49:24.670Z,85.40
2019-03-29T21:51:55.424Z,92.80
2019-03-29T21:54:25.689Z,86.00
2019-03-29T21:56:56.701Z,90.00
2019-03-29T21:59:27.074Z,94.20
2019-03-29T22:01:57.445Z,88.80
2019-03-29T22:04:27.958Z,93.60
2019-03-29T22:06:58.302Z,88.80
2019-03-29T22:09:36.795Z,92.40
2019-03-29T22:12:00.709Z,99.40
2019-03-29T22:14:30.895Z,98.00
2019-03-29T22:17:01.189Z,93.00
2019-03-29T22:19:31.525Z,101.20
2019-03-29T22:22:02.735Z,92.80
2019-03-29T22:24:32.993Z,87.40
2019-03-29T22:27:03.217Z,91.20
2019-03-29T22:29:33.566Z,96.00
2019-03-29T22:32:03.706Z,95.80
2019-03-29T22:34:34.199Z,96.00
2019-03-29T22:37:04.497Z,90.60
2019-03-29T22:39:34.661Z,90.80
2019-03-29T22:42:05.010Z,100.00
2019-03-29T22:44:35.499Z,98.40
2019-03-29T22:47:05.941Z,89.40
2019-03-29T22:49:36.717Z,105.20
2019-03-29T22:52:07.256Z,101.80
2019-03-29T22:54:37.927Z,100.20
2019-03-29T22:57:08.414Z,119.00
2019-03-29T22:59:39.286Z,108.80
2019-03-29T23:02:09.661Z,109.40
2019-03-29T23:04:40.198Z,106.00
2019-03-29T23:07:10.700Z,100.60
2019-03-29T23:09:41.232Z,101.40
2019-03-29T23:12:12.043Z,106.80
2019-03-29T23:14:42.417Z,102.00
2019-03-29T23:17:12.679Z,110.40
2019-03-29T23:19:43.092Z,115.00
2019-03-29T23:22:13.758Z,122.60
2019-03-29T23:24:44.317Z,111.20
2019-03-29T23:27:15.211Z,121.40
2019-03-29T23:29:45.934Z,116.80
2019-03-29T23:32:16.165Z,113.00
2019-03-29T23:34:47.209Z,117.00
2019-03-29T23:37:18.369Z,108.60
2019-03-29T23:39:48.777Z,113.20
2019-03-29T23:42:18.979Z,117.00
2019-03-29T23:44:49.900Z,102.60
2019-03-29T23:47:20.343Z,99.80
2019-03-29T23:49:50.635Z,105.80
2019-03-29T23:52:21.500Z,111.00
2019-03-29T23:54:51.791Z,112.00
2019-03-29T23:57:22.143Z,105.60
2019-03-29T23:59:52.882Z,120.60
